Weather reports worldwide

Advertisment
Ancona, Italy (16190): temperature & dewpoint: 17.07.2019 22:00:00 - 23.07.2019 22:00:00 (CEST)Ancona, Italy (16190): wind speed: 17.07.2019 22:00:00 - 23.07.2019 22:00:00 (CEST)Ancona, Italy (16190): wind direction: 17.07.2019 22:00:00 - 23.07.2019 22:00:00 (CEST)Ancona, Italy (16190): reduced air pressure: 17.07.2019 22:00:00 - 23.07.2019 22:00:00 (CEST)Ancona, Italy (16190): precipitation: 17.07.2019 22:00:00 - 23.07.2019 22:00:00 (CEST)
Date & Time tt [°C] td [°C] ff [km/h] ff [kn] dd ppp [hPa] rr [mm]
23.07.2019 22:00:00 - - - - - - -
23.07.2019 21:00:00 26,6 12,3 4 2 N 1011,7 -
23.07.2019 20:00:00 28,7 11,7 4 2 N 1011,5 -
23.07.2019 19:00:00 28,9 18,3 2 1 WNW 1011,8 -
23.07.2019 18:00:00 29,1 18,2 8 4 NNE 1012,1 -
23.07.2019 17:00:00 29,7 19,1 4 2 NNE 1012,5 -
23.07.2019 16:00:00 30,5 18,9 4 2 NNE 1012,7 -
23.07.2019 15:00:00 30,2 17,9 8 4 N 1013,3 -
23.07.2019 14:00:00 30,0 18,7 11 6 NNW 1013,5 -
23.07.2019 13:00:00 29,4 19,9 8 4 NNW 1013,9 -
23.07.2019 12:00:00 28,3 21,8 9 5 NW 1014,3 -
23.07.2019 11:00:00 27,4 20,9 13 7 NW 1014,5 -
23.07.2019 10:00:00 26,9 19,7 8 4 NW 1014,4 -
23.07.2019 09:00:00 26,3 19,4 5 3 WNW 1014,3 -
23.07.2019 08:00:00 25,3 18,2 5 3 W 1014,1 -
23.07.2019 07:00:00 24,4 17,8 8 4 WNW 1014,0 -
23.07.2019 06:00:00 24,1 17,3 9 5 W 1014,0 -
23.07.2019 05:00:00 24,1 17,3 9 5 WNW 1013,9 -
23.07.2019 04:00:00 24,3 17,7 8 4 W 1014,1 -
23.07.2019 03:00:00 24,4 17,8 8 4 WNW 1014,4 -
23.07.2019 02:00:00 24,7 16,9 8 4 W 1014,6 -
23.07.2019 01:00:00 24,9 16,8 8 4 W 1014,7 -
23.07.2019 00:00:00 24,6 17,0 8 4 W 1014,7 -
22.07.2019 23:00:00 24,7 19,9 5 3 W 1014,8 -
22.07.2019 22:00:00 25,1 21,1 4 2 W 1014,7 -
22.07.2019 21:00:00 25,4 20,4 4 2 NW 1014,5 -
22.07.2019 20:00:00 26,0 20,9 5 3 NW 1014,1 -
22.07.2019 19:00:00 26,8 21,0 9 5 NW 1014,0 -
22.07.2019 18:00:00 28,1 20,6 13 7 NNW 1014,2 -
22.07.2019 17:00:00 28,2 20,2 15 8 WNW 1014,6 -
22.07.2019 16:00:00 27,9 20,9 9 5 N 1014,9 -
22.07.2019 15:00:00 28,0 22,0 18 10 N 1015,3 -
22.07.2019 14:00:00 29,5 20,0 9 5 N 1015,5 -
22.07.2019 13:00:00 27,9 20,1 11 6 NW 1015,7 -
22.07.2019 12:00:00 27,6 20,9 11 6 NNW 1015,9 -
22.07.2019 11:00:00 26,8 21,7 9 5 WNW 1015,9 -
22.07.2019 10:00:00 25,7 20,4 9 5 NW 1015,9 -
22.07.2019 09:00:00 25,4 19,7 13 7 NW 1016,0 -
22.07.2019 08:00:00 24,7 16,9 9 5 WNW 1015,7 -
22.07.2019 07:00:00 23,9 17,1 5 3 W 1015,3 -
22.07.2019 06:00:00 23,6 15,8 5 3 WNW 1015,1 -
22.07.2019 05:00:00 23,8 15,5 9 5 WNW 1014,8 -
22.07.2019 04:00:00 24,8 13,6 5 3 N 1014,7 -
22.07.2019 03:00:00 26,3 13,4 8 4 S 1014,6 -
22.07.2019 02:00:00 26,4 12,8 9 5 S 1014,7 -
22.07.2019 01:00:00 26,6 11,1 8 4 S 1014,9 -
22.07.2019 00:00:00 26,3 12,7 15 8 SSE 1014,7 -
21.07.2019 23:00:00 25,2 13,3 11 6 S 1014,6 -
21.07.2019 22:00:00 25,5 14,5 8 4 S 1014,4 -
21.07.2019 21:00:00 26,1 16,3 5 3 SSE 1013,6 -
21.07.2019 20:00:00 27,0 14,7 9 5 ESE 1013,0 -
21.07.2019 19:00:00 27,9 14,5 11 6 E 1012,9 -
21.07.2019 18:00:00 28,5 14,3 9 5 E 1012,7 -
21.07.2019 17:00:00 28,8 13,4 21 11 E 1013,1 -
21.07.2019 16:00:00 28,6 16,8 9 5 E 1013,5 -
21.07.2019 15:00:00 28,2 18,5 18 10 E 1013,7 -
21.07.2019 14:00:00 28,9 17,7 9 5 E 1013,7 -
21.07.2019 13:00:00 29,4 19,7 11 6 ENE 1013,7 -
21.07.2019 12:00:00 30,1 16,1 8 4 NE 1013,7 -
21.07.2019 11:00:00 30,1 14,6 5 3 NNE 1013,7 -
21.07.2019 10:00:00 29,2 18,9 4 2 NNE 1013,9 -
21.07.2019 09:00:00 28,6 15,1 5 3 W 1013,8 -
21.07.2019 08:00:00 26,6 14,6 8 4 SW 1013,6 -
21.07.2019 07:00:00 26,0 14,4 11 6 SW 1013,4 -
21.07.2019 06:00:00 25,8 14,2 11 6 WSW 1013,1 -
21.07.2019 05:00:00 25,1 15,1 13 7 W 1013,2 -
21.07.2019 04:00:00 25,0 15,0 16 9 W 1013,1 -
21.07.2019 03:00:00 24,8 14,2 9 5 SSW 1013,0 -
21.07.2019 02:00:00 25,2 14,0 11 6 S 1013,3 -
21.07.2019 01:00:00 25,1 13,6 9 5 S 1013,3 -
21.07.2019 00:00:00 25,3 14,1 13 7 SSE 1012,9 -
20.07.2019 23:00:00 26,3 13,4 11 6 SSE 1012,8 -
20.07.2019 22:00:00 26,3 12,3 13 7 SSE 1012,5 -
20.07.2019 21:00:00 26,6 10,7 21 11 SSE 1011,9 -
20.07.2019 20:00:00 27,4 11,8 11 6 S 1011,9 -
20.07.2019 19:00:00 28,8 13,8 15 8 S 1011,8 -
20.07.2019 18:00:00 29,3 15,4 11 6 SSE 1011,9 -
20.07.2019 17:00:00 27,8 18,2 15 8 E 1012,1 -
20.07.2019 16:00:00 27,6 20,1 16 9 E 1012,2 -
20.07.2019 15:00:00 27,1 18,1 15 8 E 1012,3 -
20.07.2019 14:00:00 27,1 19,1 21 11 E 1012,5 -
20.07.2019 13:00:00 27,5 18,2 9 5 ENE 1012,7 -
20.07.2019 12:00:00 26,9 17,9 9 5 E 1012,7 -
20.07.2019 11:00:00 27,8 17,6 5 3 ENE 1012,6 -
20.07.2019 10:00:00 27,6 18,0 2 1 WSW 1012,3 -
20.07.2019 09:00:00 25,3 16,9 4 2 SW 1012,4 -
20.07.2019 08:00:00 24,1 16,3 4 2 S 1012,3 -
20.07.2019 07:00:00 22,6 17,0 2 1 SW 1012,1 -
20.07.2019 06:00:00 22,1 16,7 4 2 NE 1011,8 -
20.07.2019 05:00:00 22,7 15,9 4 2 N 1011,5 -
20.07.2019 04:00:00 22,8 16,5 5 3 SW 1011,1 -
20.07.2019 03:00:00 22,1 17,0 11 6 S 1011,1 -
20.07.2019 02:00:00 22,1 17,8 9 5 S 1011,4 -
20.07.2019 01:00:00 23,3 15,8 9 5 SSE 1011,4 -
20.07.2019 00:00:00 22,7 18,6 16 9 S 1011,4 -
19.07.2019 23:00:00 22,6 17,4 13 7 S 1011,0 -
19.07.2019 22:00:00 22,8 17,9 11 6 S 1010,8 -
19.07.2019 21:00:00 23,8 15,7 8 4 S 1010,4 -
19.07.2019 20:00:00 25,0 16,6 8 4 ESE 1010,2 -
19.07.2019 19:00:00 25,9 16,7 9 5 E 1009,9 -
19.07.2019 18:00:00 26,2 16,7 9 5 E 1009,9 -
19.07.2019 17:00:00 26,1 18,2 16 9 E 1010,0 -
19.07.2019 16:00:00 25,8 17,9 22 12 E 1010,2 -
19.07.2019 15:00:00 26,1 18,9 16 9 E 1010,4 -
19.07.2019 14:00:00 26,2 19,0 13 7 E 1010,6 -
19.07.2019 13:00:00 26,4 18,5 11 6 ENE 1010,8 -
19.07.2019 12:00:00 26,7 18,8 2 1 NE 1010,9 -
19.07.2019 11:00:00 26,2 16,9 9 5 NNE 1010,7 -
19.07.2019 10:00:00 26,4 18,5 2 1 SW 1010,4 -
19.07.2019 09:00:00 24,8 16,7 2 1 NNE 1010,1 -
19.07.2019 08:00:00 22,9 17,9 2 1 W 1010,1 -
19.07.2019 07:00:00 21,4 17,1 4 2 SSW 1009,8 -
19.07.2019 06:00:00 21,1 17,2 2 1 WSW 1009,6 -
19.07.2019 05:00:00 21,9 17,6 9 5 SSE 1009,1 -
19.07.2019 04:00:00 21,9 17,2 5 3 S 1009,3 -
19.07.2019 03:00:00 22,3 16,9 2 1 SSW 1009,2 -
19.07.2019 02:00:00 22,1 17,4 9 5 SSE 1008,9 -
19.07.2019 01:00:00 21,8 17,1 11 6 S 1008,9 -
19.07.2019 00:00:00 22,2 16,8 11 6 S 1008,7 -
18.07.2019 23:00:00 22,8 17,0 8 4 SSE 1008,3 -
18.07.2019 22:00:00 22,9 16,8 4 2 S 1008,2 -
18.07.2019 21:00:00 23,6 17,3 8 4 ESE 1007,2 -
18.07.2019 20:00:00 23,9 17,3 11 6 E 1007,1 -
18.07.2019 19:00:00 24,1 15,8 15 8 E 1006,6 -
18.07.2019 18:00:00 26,0 16,5 9 5 E 1006,3 -
18.07.2019 17:00:00 25,0 16,1 18 10 E 1006,2 -
18.07.2019 16:00:00 25,2 15,2 18 10 E 1006,2 -
18.07.2019 15:00:00 26,1 16,3 18 10 E 1006,3 -
18.07.2019 14:00:00 26,0 16,5 21 11 E 1006,2 -
18.07.2019 13:00:00 26,3 15,9 18 10 E 1006,1 -
18.07.2019 12:00:00 25,5 15,4 18 10 E 1006,3 -
18.07.2019 11:00:00 26,1 16,6 11 6 WSW 1006,1 -
18.07.2019 10:00:00 26,7 14,4 5 3 ENE 1005,9 -
18.07.2019 09:00:00 23,7 14,3 5 3 S 1005,8 -
18.07.2019 08:00:00 21,6 12,7 9 5 S 1005,8 0,0
18.07.2019 07:00:00 21,3 9,8 11 6 S 1005,7 -
18.07.2019 06:00:00 20,3 7,9 11 6 S 1005,5 -
18.07.2019 05:00:00 21,9 9,0 13 7 SSE 1005,3 -
18.07.2019 04:00:00 23,4 8,6 9 5 SSE 1005,4 -
18.07.2019 03:00:00 23,3 8,1 8 4 S 1005,8 -
18.07.2019 02:00:00 22,9 7,0 9 5 S 1006,0 -
18.07.2019 01:00:00 23,6 6,8 11 6 S 1006,0 -
18.07.2019 00:00:00 23,4 6,2 9 5 SSE 1006,1 -
17.07.2019 23:00:00 23,3 5,2 13 7 S 1005,9 -
17.07.2019 22:00:00 22,2 10,9 15 8 SSE 1006,0 -

tt = temperature
td = dewpoint
ff = wind speed
dd = wind direction
ppp = reduced air pressure
rr = precipitation

Next stations